createdAt,value
2019-06-20T00:00:30.983Z,11.65
2019-06-20T00:03:01.823Z,11.93
2019-06-20T00:05:32.872Z,11.85
2019-06-20T00:08:03.955Z,10.68
2019-06-20T00:10:34.663Z,12.50
2019-06-20T00:13:05.641Z,12.80
2019-06-20T00:15:36.927Z,12.33
2019-06-20T00:18:08.078Z,11.80
2019-06-20T00:20:39.047Z,11.80
2019-06-20T00:23:10.312Z,12.13
2019-06-20T00:25:41.260Z,12.35
2019-06-20T00:28:12.227Z,11.25
2019-06-20T00:30:43.024Z,11.00
2019-06-20T00:33:13.973Z,10.93
2019-06-20T00:35:47.469Z,11.78
2019-06-20T00:38:18.493Z,10.82
2019-06-20T00:40:49.222Z,11.25
2019-06-20T00:43:19.955Z,11.22
2019-06-20T00:45:50.851Z,11.03
2019-06-20T00:48:21.480Z,10.53
2019-06-20T00:50:52.656Z,10.68
2019-06-20T00:53:23.620Z,10.95
2019-06-20T00:55:54.702Z,10.75
2019-06-20T00:58:25.621Z,10.80
2019-06-20T01:00:56.330Z,12.13
2019-06-20T01:03:27.267Z,11.33
2019-06-20T01:05:58.944Z,12.70
2019-06-20T01:08:29.990Z,11.80
2019-06-20T01:11:00.602Z,10.50
2019-06-20T01:13:34.277Z,12.47
2019-06-20T01:16:06.418Z,12.28
2019-06-20T01:18:37.351Z,11.65
2019-06-20T01:21:09.708Z,10.88
2019-06-20T01:23:40.556Z,10.28
2019-06-20T01:26:11.459Z,12.10
2019-06-20T01:28:42.464Z,12.85
2019-06-20T01:31:13.637Z,11.60
2019-06-20T01:33:44.506Z,11.55
2019-06-20T01:36:15.543Z,12.60
2019-06-20T01:38:46.239Z,12.90
2019-06-20T01:41:17.141Z,12.05
2019-06-20T01:43:50.932Z,12.65
2019-06-20T01:46:20.643Z,13.22
2019-06-20T01:48:51.595Z,12.85
2019-06-20T01:51:24.483Z,11.25
2019-06-20T01:53:55.487Z,12.18
2019-06-20T01:56:27.044Z,11.73
2019-06-20T01:58:57.600Z,12.05
2019-06-20T02:01:31.356Z,11.28
2019-06-20T02:04:02.191Z,12.50
2019-06-20T02:06:33.438Z,12.78
2019-06-20T02:09:06.380Z,11.85
2019-06-20T02:11:37.379Z,11.12
2019-06-20T02:14:08.709Z,11.53
2019-06-20T02:16:39.516Z,11.20
2019-06-20T02:19:11.805Z,11.50
2019-06-20T02:21:42.957Z,10.58
2019-06-20T02:24:13.819Z,11.83
2019-06-20T02:26:44.615Z,10.75
2019-06-20T02:29:15.236Z,11.73
2019-06-20T02:31:45.789Z,11.55
2019-06-20T02:34:16.492Z,10.50
2019-06-20T02:36:47.391Z,10.43
2019-06-20T02:39:18.040Z,10.50
2019-06-20T02:41:48.953Z,10.08
2019-06-20T02:44:30.175Z,11.80
2019-06-20T02:46:52.119Z,9.58
2019-06-20T02:49:23.160Z,11.10
2019-06-20T02:51:54.963Z,9.98
2019-06-20T02:54:25.657Z,9.70
2019-06-20T02:56:57.515Z,9.68
2019-06-20T02:59:28.517Z,9.90
2019-06-20T03:02:00.748Z,9.38
2019-06-20T03:04:32.772Z,10.18
2019-06-20T03:07:03.904Z,10.40
2019-06-20T03:09:34.819Z,8.83
2019-06-20T03:12:05.566Z,10.75
2019-06-20T03:14:45.062Z,10.13
2019-06-20T03:17:08.988Z,10.50
2019-06-20T03:19:40.016Z,9.10
2019-06-20T03:22:10.968Z,9.90
2019-06-20T03:24:41.601Z,9.90
2019-06-20T03:27:12.595Z,10.23
2019-06-20T03:29:43.108Z,8.50
2019-06-20T03:32:14.073Z,9.05
2019-06-20T03:34:44.878Z,9.25
2019-06-20T03:37:15.860Z,10.10
2019-06-20T03:39:47.043Z,9.28
2019-06-20T03:42:19.841Z,9.35
2019-06-20T03:45:01.592Z,9.55
2019-06-20T03:47:26.363Z,8.45
2019-06-20T03:49:57.111Z,8.80
2019-06-20T03:52:27.836Z,9.18
2019-06-20T03:54:58.851Z,9.53
2019-06-20T03:57:29.505Z,9.88
2019-06-20T04:00:00.244Z,9.55
2019-06-20T04:02:31.057Z,9.63
2019-06-20T04:05:01.738Z,9.88
2019-06-20T04:07:32.583Z,9.08
2019-06-20T04:10:03.435Z,7.78
2019-06-20T04:12:34.201Z,9.88
2019-06-20T04:15:18.148Z,9.85
2019-06-20T04:17:37.694Z,9.40
2019-06-20T04:20:08.948Z,9.65
2019-06-20T04:22:39.614Z,8.63
2019-06-20T04:25:10.795Z,8.85
2019-06-20T04:27:42.896Z,9.40
2019-06-20T04:30:13.760Z,7.62
2019-06-20T04:32:44.626Z,9.83
2019-06-20T04:35:15.549Z,8.73
2019-06-20T04:37:46.293Z,7.40
2019-06-20T04:40:17.110Z,7.47
2019-06-20T04:42:47.692Z,7.83
2019-06-20T04:45:35.753Z,7.90
2019-06-20T04:50:36.434Z,7.20
2019-06-20T04:53:07.596Z,8.95
2019-06-20T04:55:39.426Z,8.50
2019-06-20T04:58:10.397Z,7.75
2019-06-20T05:00:41.322Z,8.28
2019-06-20T05:03:12.507Z,7.60
2019-06-20T05:05:43.681Z,7.95
2019-06-20T05:08:14.810Z,7.20
2019-06-20T05:10:45.633Z,7.08
2019-06-20T05:13:16.567Z,8.00
2019-06-20T05:15:52.689Z,7.05
2019-06-20T05:18:19.987Z,7.75
2019-06-20T05:20:50.938Z,8.88
2019-06-20T05:23:23.446Z,7.65
2019-06-20T05:25:54.535Z,8.65
2019-06-20T05:28:25.538Z,6.20
2019-06-20T05:30:56.310Z,6.42
2019-06-20T05:33:27.319Z,6.90
2019-06-20T05:35:58.557Z,6.50
2019-06-20T05:38:29.530Z,6.40
2019-06-20T05:41:00.515Z,6.55
2019-06-20T05:43:31.903Z,5.80
2019-06-20T05:46:09.242Z,6.78
2019-06-20T05:48:36.552Z,6.40
2019-06-20T05:51:07.510Z,6.28
2019-06-20T05:53:38.555Z,4.95
2019-06-20T05:56:09.973Z,5.15
2019-06-20T05:58:41.149Z,5.00
2019-06-20T06:01:12.898Z,5.80
2019-06-20T06:03:43.979Z,5.40
2019-06-20T06:06:14.965Z,4.70
2019-06-20T06:08:45.751Z,4.25
2019-06-20T06:11:17.247Z,4.90
2019-06-20T06:13:48.025Z,4.35
2019-06-20T06:16:26.989Z,3.60
2019-06-20T06:18:52.677Z,4.20
2019-06-20T06:21:23.838Z,4.80
2019-06-20T06:23:55.226Z,4.10
2019-06-20T06:26:26.061Z,4.05
2019-06-20T06:28:56.827Z,4.25
2019-06-20T06:31:27.619Z,5.70
2019-06-20T06:33:58.092Z,4.40
2019-06-20T06:36:29.237Z,4.15
2019-06-20T06:39:00.387Z,4.55
2019-06-20T06:41:32.817Z,4.15
2019-06-20T06:44:07.591Z,3.98
2019-06-20T06:46:44.859Z,4.62
2019-06-20T06:49:09.892Z,4.40
2019-06-20T06:51:41.316Z,5.20
2019-06-20T06:54:12.483Z,4.67
2019-06-20T06:56:45.927Z,5.03
2019-06-20T06:59:17.221Z,5.28
2019-06-20T07:01:48.038Z,5.20
2019-06-20T07:04:19.126Z,4.70
2019-06-20T07:06:50.081Z,5.35
2019-06-20T07:09:21.079Z,5.50
2019-06-20T07:11:54.548Z,5.25
2019-06-20T07:14:25.200Z,4.72
2019-06-20T07:17:02.208Z,5.67
2019-06-20T07:19:34.057Z,5.40
2019-06-20T07:22:04.787Z,5.17
2019-06-20T07:24:35.840Z,6.20
2019-06-20T07:27:06.859Z,5.58
2019-06-20T07:29:37.548Z,5.45
2019-06-20T07:32:08.310Z,5.75
2019-06-20T07:34:38.938Z,5.05
2019-06-20T07:37:09.719Z,5.25
2019-06-20T07:39:40.568Z,4.72
2019-06-20T07:42:11.191Z,5.08
2019-06-20T07:44:43.292Z,5.15
2019-06-20T07:47:17.962Z,4.87
2019-06-20T07:49:49.104Z,4.30
2019-06-20T07:52:19.739Z,4.35
2019-06-20T07:54:50.778Z,3.60
2019-06-20T07:57:21.643Z,3.20
2019-06-20T07:59:52.577Z,3.72
2019-06-20T08:02:23.435Z,3.50
2019-06-20T08:04:54.322Z,3.50
2019-06-20T08:07:25.222Z,3.17
2019-06-20T08:09:55.831Z,3.27
2019-06-20T08:12:26.853Z,4.00
2019-06-20T08:15:13.764Z,4.00
2019-06-20T08:17:35.203Z,3.10
2019-06-20T08:20:03.002Z,3.05
2019-06-20T08:22:36.717Z,2.70
2019-06-20T08:25:08.723Z,2.27
2019-06-20T08:27:51.825Z,2.60
2019-06-20T08:30:25.759Z,2.40
2019-06-20T08:32:58.720Z,2.08
2019-06-20T08:35:30.823Z,2.42
2019-06-20T08:38:03.488Z,2.00
2019-06-20T08:40:39.015Z,2.17
2019-06-20T08:43:10.662Z,2.40
2019-06-20T08:45:42.946Z,2.58
2019-06-20T08:48:13.995Z,1.90
2019-06-20T08:50:44.812Z,2.17
2019-06-20T08:53:15.667Z,2.87
2019-06-20T08:55:46.439Z,2.20
2019-06-20T08:58:18.365Z,2.10
2019-06-20T09:00:50.692Z,2.40
2019-06-20T09:03:21.580Z,1.92
2019-06-20T09:05:54.889Z,1.80
2019-06-20T09:08:25.540Z,2.00
2019-06-20T09:10:57.454Z,2.08
2019-06-20T09:13:28.407Z,2.17
2019-06-20T09:16:00.824Z,1.42
2019-06-20T09:18:32.073Z,1.50
2019-06-20T09:21:03.139Z,1.72
2019-06-20T09:23:35.826Z,1.80
2019-06-20T09:26:07.058Z,1.52
2019-06-20T09:28:38.143Z,1.50
2019-06-20T09:31:09.275Z,1.90
2019-06-20T09:33:44.220Z,1.40
2019-06-20T09:36:15.006Z,1.52
2019-06-20T09:38:46.253Z,1.65
2019-06-20T09:41:17.184Z,1.42
2019-06-20T09:43:51.537Z,1.52
2019-06-20T09:46:26.178Z,1.60
2019-06-20T09:49:00.120Z,1.15
2019-06-20T09:51:31.116Z,1.30
2019-06-20T09:54:06.821Z,1.27
2019-06-20T09:56:37.413Z,1.60
2019-06-20T09:59:08.088Z,1.72
2019-06-20T10:01:39.254Z,1.55
2019-06-20T10:04:10.390Z,1.67
2019-06-20T10:06:41.621Z,2.20
2019-06-20T10:09:12.933Z,1.55
2019-06-20T10:11:43.754Z,1.47
2019-06-20T10:14:15.006Z,1.75
2019-06-20T10:16:50.343Z,1.60
2019-06-20T10:19:19.042Z,1.80
2019-06-20T10:21:49.938Z,1.62
2019-06-20T10:24:21.142Z,1.35
2019-06-20T10:26:51.853Z,1.67
2019-06-20T10:29:22.724Z,1.70
2019-06-20T10:31:53.792Z,1.90
2019-06-20T10:34:24.484Z,1.55
2019-06-20T10:36:56.976Z,1.52
2019-06-20T10:39:27.459Z,1.40
2019-06-20T10:41:58.527Z,1.22
2019-06-20T10:44:29.201Z,1.47
2019-06-20T10:46:59.816Z,1.70
2019-06-20T10:49:30.908Z,1.80
2019-06-20T10:52:01.615Z,1.35
2019-06-20T10:54:32.424Z,1.55
2019-06-20T10:57:03.217Z,1.35
2019-06-20T10:59:36.228Z,1.20
2019-06-20T11:02:07.535Z,1.72
2019-06-20T11:04:40.513Z,1.47
2019-06-20T11:07:11.057Z,1.20
2019-06-20T11:09:42.861Z,1.50
2019-06-20T11:12:13.923Z,1.52
2019-06-20T11:14:46.150Z,1.65
2019-06-20T11:17:17.017Z,1.52
2019-06-20T11:19:48.195Z,1.25
2019-06-20T11:22:19.083Z,1.42
2019-06-20T11:24:50.175Z,1.42
2019-06-20T11:27:21.669Z,1.47
2019-06-20T11:29:53.506Z,1.40
2019-06-20T11:32:28.251Z,1.40
2019-06-20T11:35:03.029Z,1.42
2019-06-20T11:37:44.725Z,1.32
2019-06-20T11:40:20.715Z,2.05
2019-06-20T11:42:56.732Z,1.77
2019-06-20T11:46:07.510Z,1.62
2019-06-20T11:48:45.160Z,1.55
2019-06-20T11:51:25.543Z,1.60
2019-06-20T11:54:00.621Z,1.77
2019-06-20T11:56:35.845Z,1.30
2019-06-20T11:59:13.562Z,1.15
2019-06-20T12:01:51.246Z,1.00
2019-06-20T12:04:25.642Z,1.10
2019-06-20T12:06:57.910Z,1.20
2019-06-20T12:09:28.920Z,1.75
2019-06-20T12:12:00.973Z,0.80
2019-06-20T12:14:31.848Z,0.90
2019-06-20T12:17:04.092Z,0.78
2019-06-20T12:19:39.200Z,0.95
2019-06-20T12:22:16.548Z,0.62
2019-06-20T12:27:38.658Z,1.07
2019-06-20T12:30:20.023Z,1.00
2019-06-20T12:32:52.158Z,0.70
2019-06-20T12:35:28.269Z,0.85
2019-06-20T12:41:52.116Z,0.80
2019-06-20T12:44:22.692Z,0.85
2019-06-20T12:46:53.437Z,0.90
2019-06-20T12:49:24.130Z,0.70
2019-06-20T12:52:00.152Z,1.12
2019-06-20T12:54:33.194Z,1.27
2019-06-20T12:57:03.882Z,0.80
2019-06-20T12:59:34.421Z,0.88
2019-06-20T13:02:15.610Z,0.95
2019-06-20T13:04:47.028Z,0.90
2019-06-20T13:07:17.649Z,0.78
2019-06-20T13:09:48.584Z,1.05
2019-06-20T13:12:20.584Z,0.95
2019-06-20T13:14:51.173Z,0.70
2019-06-20T13:17:21.870Z,0.70
2019-06-20T13:19:53.515Z,1.05
2019-06-20T13:22:24.286Z,1.30
2019-06-20T13:24:55.005Z,0.90
2019-06-20T13:27:25.719Z,0.88
2019-06-20T13:29:57.011Z,0.90
2019-06-20T13:32:28.187Z,1.07
2019-06-20T13:34:59.147Z,1.02
2019-06-20T13:37:30.067Z,1.10
2019-06-20T13:40:00.722Z,1.30
2019-06-20T13:42:31.334Z,0.70
2019-06-20T13:45:01.850Z,0.90
2019-06-20T13:47:32.518Z,0.80
2019-06-20T13:50:04.857Z,0.98
2019-06-20T13:52:49.603Z,1.05
2019-06-20T13:55:20.696Z,1.40
2019-06-20T13:57:51.453Z,1.05
2019-06-20T14:00:28.620Z,1.07
2019-06-20T14:02:59.315Z,0.90
2019-06-20T14:05:30.034Z,1.42
2019-06-20T14:08:00.669Z,1.00
2019-06-20T14:10:31.700Z,1.00
2019-06-20T14:13:18.206Z,1.00
2019-06-20T14:15:36.575Z,1.02
2019-06-20T14:18:07.137Z,0.95
2019-06-20T14:20:38.802Z,0.78
2019-06-20T14:23:09.326Z,0.70
2019-06-20T14:25:39.866Z,1.00
2019-06-20T14:28:10.439Z,1.27
2019-06-20T14:30:41.003Z,2.50
2019-06-20T14:33:11.565Z,2.00
2019-06-20T14:35:44.025Z,1.60
2019-06-20T14:38:14.628Z,1.57
2019-06-20T14:40:45.376Z,0.98
2019-06-20T14:43:15.974Z,1.10
2019-06-20T14:45:46.877Z,1.15
2019-06-20T14:48:17.503Z,0.90
2019-06-20T14:50:49.507Z,1.17
2019-06-20T14:53:20.169Z,1.02
2019-06-20T14:55:51.759Z,0.72
2019-06-20T14:58:22.411Z,0.70
2019-06-20T15:00:54.161Z,0.90
2019-06-20T15:03:24.715Z,0.93
2019-06-20T15:05:55.249Z,1.00
2019-06-20T15:08:25.876Z,0.93
2019-06-20T15:10:56.689Z,1.17
2019-06-20T15:13:27.297Z,1.20
2019-06-20T15:15:57.896Z,1.10
2019-06-20T15:18:28.780Z,1.10
2019-06-20T15:20:59.589Z,1.67
2019-06-20T15:23:30.404Z,1.10
2019-06-20T15:26:04.200Z,1.02
2019-06-20T15:28:36.348Z,0.85
2019-06-20T15:31:07.654Z,1.20
2019-06-20T15:33:41.649Z,1.55
2019-06-20T15:36:15.216Z,1.12
2019-06-20T15:38:48.159Z,1.02
2019-06-20T15:41:19.642Z,0.95
2019-06-20T15:43:51.781Z,0.80
2019-06-20T15:46:23.721Z,0.90
2019-06-20T15:48:54.610Z,0.80
2019-06-20T15:51:25.504Z,0.95
2019-06-20T15:53:56.217Z,1.17
2019-06-20T15:56:26.957Z,1.10
2019-06-20T15:58:57.791Z,1.52
2019-06-20T16:01:28.361Z,1.12
2019-06-20T16:03:59.229Z,0.93
2019-06-20T16:06:29.898Z,1.10
2019-06-20T16:09:00.875Z,0.78
2019-06-20T16:11:33.134Z,0.90
2019-06-20T16:14:03.913Z,0.60
2019-06-20T16:16:34.608Z,0.80
2019-06-20T16:19:05.244Z,0.62
2019-06-20T16:21:35.904Z,0.65
2019-06-20T16:24:06.554Z,0.80
2019-06-20T16:26:38.271Z,0.68
2019-06-20T16:29:08.944Z,1.02
2019-06-20T16:31:39.609Z,0.70
2019-06-20T16:34:10.362Z,0.50
2019-06-20T16:36:41.616Z,0.72
2019-06-20T16:39:12.322Z,0.62
2019-06-20T16:41:43.153Z,0.60
2019-06-20T16:44:13.933Z,0.82
2019-06-20T16:46:44.671Z,0.62
2019-06-20T16:49:15.691Z,0.95
2019-06-20T16:51:46.385Z,0.60
2019-06-20T16:54:17.252Z,1.10
2019-06-20T16:56:47.913Z,0.80
2019-06-20T16:59:18.672Z,0.82
2019-06-20T17:01:49.693Z,0.85
2019-06-20T17:04:21.455Z,0.70
2019-06-20T17:06:52.368Z,1.02
2019-06-20T17:09:23.247Z,1.15
2019-06-20T17:11:54.263Z,0.80
2019-06-20T17:14:25.079Z,0.50
2019-06-20T17:16:55.847Z,0.82
2019-06-20T17:19:26.536Z,0.75
2019-06-20T17:21:57.216Z,0.80
2019-06-20T17:24:27.975Z,1.00
2019-06-20T17:26:58.852Z,0.70
2019-06-20T17:29:30.589Z,0.62
2019-06-20T17:32:01.384Z,0.70
2019-06-20T17:34:32.107Z,0.70
2019-06-20T17:37:02.802Z,0.62
2019-06-20T17:39:33.420Z,0.60
2019-06-20T17:42:04.192Z,0.70
2019-06-20T17:44:34.922Z,0.45
2019-06-20T17:47:05.713Z,0.30
2019-06-20T17:49:36.399Z,0.53
2019-06-20T17:52:07.268Z,0.80
2019-06-20T17:54:37.994Z,0.70
2019-06-20T17:57:08.961Z,0.80
2019-06-20T17:59:39.572Z,0.95
2019-06-20T18:02:10.515Z,0.60
2019-06-20T18:04:41.376Z,0.60
2019-06-20T18:07:12.015Z,0.80
2019-06-20T18:09:42.717Z,0.80
2019-06-20T18:12:14.999Z,0.60
2019-06-20T18:14:45.968Z,0.78
2019-06-20T18:17:16.733Z,0.70
2019-06-20T18:19:48.953Z,0.80
2019-06-20T18:22:19.675Z,0.70
2019-06-20T18:24:50.971Z,0.70
2019-06-20T18:27:21.928Z,0.80
2019-06-20T18:29:52.595Z,0.93
2019-06-20T18:32:23.067Z,0.85
2019-06-20T18:35:01.940Z,0.62
2019-06-20T18:37:31.528Z,0.80
2019-06-20T18:39:58.687Z,0.90
2019-06-20T18:42:29.911Z,0.72
2019-06-20T18:45:00.944Z,0.80
2019-06-20T18:47:31.664Z,0.90
2019-06-20T18:50:05.350Z,0.70
2019-06-20T18:52:51.158Z,0.90
2019-06-20T18:55:10.552Z,0.70
2019-06-20T18:57:41.458Z,0.80
2019-06-20T19:00:12.914Z,0.90
2019-06-20T19:02:44.198Z,0.60
2019-06-20T19:05:15.443Z,1.00
2019-06-20T19:07:46.192Z,0.90
2019-06-20T19:10:22.234Z,0.90
2019-06-20T19:12:53.184Z,0.80
2019-06-20T19:15:25.053Z,0.80
2019-06-20T19:17:55.814Z,0.60
2019-06-20T19:20:26.512Z,0.82
2019-06-20T19:22:57.259Z,0.80
2019-06-20T19:25:29.030Z,0.98
2019-06-20T19:27:59.976Z,0.95
2019-06-20T19:30:41.397Z,0.85
2019-06-20T19:33:12.129Z,0.90
2019-06-20T19:35:42.706Z,1.00
2019-06-20T19:38:13.391Z,1.07
2019-06-20T19:40:46.694Z,0.82
2019-06-20T19:43:20.265Z,0.90
2019-06-20T19:45:51.052Z,0.80
2019-06-20T19:48:22.806Z,0.90
2019-06-20T19:50:54.390Z,0.80
2019-06-20T19:53:27.543Z,1.37
2019-06-20T19:55:59.357Z,0.70
2019-06-20T19:58:33.300Z,0.95
2019-06-20T20:01:04.614Z,0.98
2019-06-20T20:03:35.588Z,1.22
2019-06-20T20:06:06.128Z,0.98
2019-06-20T20:08:37.139Z,1.00
2019-06-20T20:11:08.821Z,1.10
2019-06-20T20:13:39.384Z,1.20
2019-06-20T20:16:10.807Z,1.05
2019-06-20T20:18:41.547Z,1.30
2019-06-20T20:21:12.577Z,1.30
2019-06-20T20:23:43.627Z,1.30
2019-06-20T20:26:15.778Z,1.35
2019-06-20T20:28:49.068Z,1.47
2019-06-20T20:31:20.329Z,0.90
2019-06-20T20:33:52.119Z,1.10
2019-06-20T20:36:25.522Z,1.42
2019-06-20T20:39:11.022Z,1.20
2019-06-20T20:41:42.679Z,0.90
2019-06-20T20:44:13.485Z,1.45
2019-06-20T20:46:44.469Z,1.10
2019-06-20T20:49:15.205Z,1.02
2019-06-20T20:51:45.839Z,1.10
2019-06-20T20:54:16.506Z,0.90
2019-06-20T20:56:47.129Z,1.22
2019-06-20T20:59:17.702Z,1.32
2019-06-20T21:01:48.898Z,1.10
2019-06-20T21:04:20.424Z,1.00
2019-06-20T21:06:50.950Z,1.10
2019-06-20T21:09:22.248Z,1.42
2019-06-20T21:11:52.921Z,1.30
2019-06-20T21:14:25.441Z,1.10
2019-06-20T21:16:56.277Z,1.05
2019-06-20T21:19:27.079Z,1.40
2019-06-20T21:21:57.626Z,1.27
2019-06-20T21:24:29.421Z,1.10
2019-06-20T21:27:00.134Z,1.32
2019-06-20T21:29:30.602Z,1.40
2019-06-20T21:32:01.241Z,1.00
2019-06-20T21:34:31.857Z,1.22
2019-06-20T21:37:08.232Z,1.22
2019-06-20T21:39:38.944Z,1.12
2019-06-20T21:42:09.545Z,1.20
2019-06-20T21:44:40.253Z,1.10
2019-06-20T21:47:10.862Z,0.93
2019-06-20T21:49:41.465Z,1.10
2019-06-20T21:52:12.113Z,0.80
2019-06-20T21:54:42.743Z,1.22
2019-06-20T21:57:13.478Z,0.90
2019-06-20T21:59:44.153Z,1.00
2019-06-20T22:02:14.802Z,1.10
2019-06-20T22:04:54.437Z,1.02
2019-06-20T22:07:18.373Z,1.02
2019-06-20T22:09:49.388Z,0.88
2019-06-20T22:12:20.054Z,1.10
2019-06-20T22:14:50.714Z,1.10
2019-06-20T22:17:21.465Z,0.80
2019-06-20T22:19:52.455Z,1.10
2019-06-20T22:22:22.978Z,0.72
2019-06-20T22:24:53.892Z,0.82
2019-06-20T22:27:24.604Z,1.10
2019-06-20T22:29:55.392Z,1.20
2019-06-20T22:32:26.149Z,1.10
2019-06-20T22:34:56.759Z,1.20
2019-06-20T22:37:27.407Z,1.07
2019-06-20T22:39:57.893Z,1.00
2019-06-20T22:42:28.510Z,1.05
2019-06-20T22:44:59.554Z,1.10
2019-06-20T22:47:31.447Z,1.12
2019-06-20T22:50:02.087Z,0.78
2019-06-20T22:52:33.661Z,1.07
2019-06-20T22:55:04.412Z,1.07
2019-06-20T22:57:36.121Z,1.00
2019-06-20T23:00:07.455Z,1.05
2019-06-20T23:02:39.029Z,1.20
2019-06-20T23:05:10.104Z,1.20
2019-06-20T23:07:40.875Z,1.32
2019-06-20T23:10:12.762Z,1.62
2019-06-20T23:12:43.526Z,1.20
2019-06-20T23:15:15.533Z,1.30
2019-06-20T23:17:46.117Z,1.10
2019-06-20T23:20:16.808Z,1.98
2019-06-20T23:22:47.429Z,1.20
2019-06-20T23:25:18.086Z,1.60
2019-06-20T23:27:48.855Z,1.20
2019-06-20T23:30:21.509Z,1.10
2019-06-20T23:32:52.115Z,0.90
2019-06-20T23:35:22.779Z,1.25
2019-06-20T23:37:54.254Z,1.32
2019-06-20T23:40:24.805Z,1.07
2019-06-20T23:42:55.368Z,1.10
2019-06-20T23:45:26.089Z,1.00
2019-06-20T23:47:56.809Z,1.17
2019-06-20T23:50:27.315Z,1.45
2019-06-20T23:53:09.266Z,1.27
2019-06-20T23:55:39.899Z,1.07
2019-06-20T23:58:10.469Z,1.00
